Plainfield, Wisconsin
Current Conditions -  °F | °C
As of 1:56 AM on Friday 24 Oct 2014 (Local Time) from KY50 Reporting Station
Haze Haze  
Wind Chill: 47°   Ceiling: 100
Heat Index: 47°   Visibility: 1.5mi
Dew Point: 47°   Wind: 0mph
Humidity: 100%   Direction: NA
Pressure: 30.04"   Gusts: NA
Location:  44.21°N, 89.49°W
Report Text: KY50 240656Z AUTO 00000KT 1 1/2SM BR OVC001 08/08 A3004 RMK AO2 TSNO T00830083 SLP173
Loading
Personal Weather Stations






























Interactive Weather Map
Tropical Storm Tracking
New forecast layout! Learn more

10-Day Weather Forecast

Advertisements
Track Severe Weather on mobile